createdAt,value
2023-02-12T00:02:31.348Z,74.02
2023-02-12T00:05:37.537Z,73.74
2023-02-12T00:08:41.016Z,73.55
2023-02-12T00:11:43.477Z,73.53
2023-02-12T00:14:45.820Z,73.44
2023-02-12T00:17:48.259Z,73.29
2023-02-12T00:20:50.794Z,73.23
2023-02-12T00:23:53.105Z,73.42
2023-02-12T00:26:55.536Z,73.34
2023-02-12T00:30:01.725Z,73.62
2023-02-12T00:33:04.356Z,73.40
2023-02-12T00:36:08.323Z,72.92
2023-02-12T00:39:11.654Z,73.17
2023-02-12T00:42:13.967Z,72.81
2023-02-12T00:45:16.714Z,72.57
2023-02-12T00:48:19.103Z,71.96
2023-02-12T00:51:21.709Z,71.91
2023-02-12T00:54:23.875Z,71.89
2023-02-12T00:57:26.183Z,71.70
2023-02-12T01:00:28.527Z,72.78
2023-02-12T01:03:31.131Z,72.67
2023-02-12T01:06:33.523Z,72.78
2023-02-12T01:09:35.938Z,72.60
2023-02-12T01:12:38.284Z,73.10
2023-02-12T01:15:42.359Z,73.13
2023-02-12T01:18:45.683Z,73.40
2023-02-12T01:21:48.250Z,73.33
2023-02-12T01:24:50.712Z,73.32
2023-02-12T01:27:56.218Z,73.06
2023-02-12T01:30:58.682Z,73.49
2023-02-12T01:34:01.704Z,73.15
2023-02-12T01:37:04.727Z,73.44
2023-02-12T01:40:10.289Z,73.47
2023-02-12T01:43:13.429Z,74.03
2023-02-12T01:46:16.114Z,73.98
2023-02-12T01:49:26.917Z,73.77
2023-02-12T01:52:33.042Z,73.85
2023-02-12T01:55:35.835Z,73.98
2023-02-12T01:58:41.713Z,74.37
2023-02-12T02:01:44.892Z,74.61
2023-02-12T02:04:52.663Z,75.32
2023-02-12T02:07:55.168Z,76.45
2023-02-12T02:10:57.456Z,76.73
2023-02-12T02:14:18.891Z,77.20
2023-02-12T02:17:42.674Z,77.65
2023-02-12T02:21:12.111Z,77.56
2023-02-12T02:24:35.808Z,76.35
2023-02-12T02:27:59.440Z,76.68
2023-02-12T02:31:17.557Z,76.27
2023-02-12T02:34:29.875Z,76.48
2023-02-12T02:38:00.570Z,76.81
2023-02-12T02:41:26.335Z,76.66
2023-02-12T02:44:47.529Z,76.92
2023-02-12T02:48:00.620Z,76.80
2023-02-12T02:51:14.655Z,76.90
2023-02-12T02:54:26.341Z,76.81
2023-02-12T02:57:39.297Z,76.29
2023-02-12T03:00:56.257Z,77.42
2023-02-12T03:04:33.177Z,78.09
2023-02-12T03:07:42.054Z,77.29
2023-02-12T03:10:50.126Z,77.62
2023-02-12T03:14:07.568Z,77.47
2023-02-12T03:17:16.367Z,77.38
2023-02-12T03:20:29.696Z,77.97
2023-02-12T03:23:40.716Z,77.92
2023-02-12T03:26:48.728Z,78.00
2023-02-12T03:29:52.294Z,77.96
2023-02-12T03:33:06.777Z,77.92
2023-02-12T03:36:20.412Z,78.12
2023-02-12T03:40:02.671Z,78.10
2023-02-12T03:43:23.788Z,78.46
2023-02-12T03:46:52.481Z,77.99
2023-02-12T03:50:10.069Z,77.93
2023-02-12T03:53:12.904Z,77.61
2023-02-12T03:56:24.276Z,78.75
2023-02-12T03:59:27.070Z,78.36
2023-02-12T04:02:29.617Z,79.46
2023-02-12T04:05:32.178Z,79.17
2023-02-12T04:08:34.832Z,78.89
2023-02-12T04:12:10.294Z,78.78
2023-02-12T04:15:21.529Z,79.39
2023-02-12T04:18:45.038Z,79.68
2023-02-12T04:22:23.591Z,79.52
2023-02-12T04:25:25.915Z,79.65
2023-02-12T04:28:37.834Z,80.84
2023-02-12T04:31:48.737Z,81.28
2023-02-12T04:35:03.106Z,81.62
2023-02-12T04:38:14.052Z,82.59
2023-02-12T04:41:16.444Z,84.60
2023-02-12T04:44:24.521Z,84.93
2023-02-12T04:47:26.841Z,85.39
2023-02-12T04:50:41.009Z,85.53
2023-02-12T04:53:43.337Z,85.59
2023-02-12T04:56:46.366Z,84.25
2023-02-12T04:59:48.795Z,83.72
2023-02-12T05:02:51.056Z,83.85
2023-02-12T05:05:53.551Z,84.46
2023-02-12T05:08:57.512Z,84.55
2023-02-12T05:11:59.837Z,84.43
2023-02-12T05:15:02.342Z,84.51
2023-02-12T05:18:04.840Z,84.96
2023-02-12T05:21:07.305Z,84.71
2023-02-12T05:24:09.808Z,85.21
2023-02-12T05:27:12.409Z,85.65
2023-02-12T05:30:14.932Z,86.03
2023-02-12T05:33:17.260Z,86.48
2023-02-12T05:36:23.515Z,85.58
2023-02-12T05:39:26.044Z,85.59
2023-02-12T05:42:29.836Z,85.95
2023-02-12T05:45:33.420Z,86.11
2023-02-12T05:48:36.589Z,86.31
2023-02-12T05:51:39.580Z,88.56
2023-02-12T05:54:42.029Z,89.52
2023-02-12T05:57:44.377Z,90.17
2023-02-12T06:00:46.744Z,90.88
2023-02-12T06:03:49.432Z,91.16
2023-02-12T06:06:52.788Z,91.55
2023-02-12T06:09:57.816Z,92.10
2023-02-12T06:13:00.200Z,91.54
2023-02-12T06:16:02.927Z,91.85
2023-02-12T06:19:06.555Z,91.68
2023-02-12T06:22:08.945Z,90.50
2023-02-12T06:25:11.227Z,90.84
2023-02-12T06:28:13.579Z,90.09
2023-02-12T06:31:21.454Z,90.09
2023-02-12T06:34:23.796Z,89.22
2023-02-12T06:37:26.312Z,87.74
2023-02-12T06:40:28.866Z,87.74
2023-02-12T06:43:31.284Z,87.26
2023-02-12T06:46:33.764Z,87.01
2023-02-12T06:49:36.134Z,86.73
2023-02-12T06:52:38.538Z,85.85
2023-02-12T06:55:41.985Z,86.05
2023-02-12T06:58:46.921Z,85.61
2023-02-12T07:01:49.229Z,85.05
2023-02-12T07:04:51.590Z,85.05
2023-02-12T07:07:54.006Z,84.51
2023-02-12T07:10:56.298Z,84.54
2023-02-12T07:13:59.056Z,84.67
2023-02-12T07:17:05.050Z,84.52
2023-02-12T07:20:08.330Z,84.65
2023-02-12T07:23:13.881Z,84.55
2023-02-12T07:26:16.813Z,84.54
2023-02-12T07:29:19.158Z,84.20
2023-02-12T07:32:21.497Z,83.75
2023-02-12T07:35:23.788Z,82.13
2023-02-12T07:38:26.068Z,79.02
2023-02-12T07:41:30.669Z,76.39
2023-02-12T07:44:34.571Z,74.05
2023-02-12T07:47:38.728Z,71.86
2023-02-12T07:50:41.064Z,71.04
2023-02-12T07:53:43.801Z,69.66
2023-02-12T07:56:47.534Z,71.38
2023-02-12T07:59:49.976Z,69.69
2023-02-12T08:02:55.672Z,71.90
2023-02-12T08:05:58.302Z,72.03
2023-02-12T08:09:04.256Z,70.45
2023-02-12T08:12:06.929Z,70.67
2023-02-12T08:15:09.623Z,70.24
2023-02-12T08:18:11.987Z,69.03
2023-02-12T08:21:17.973Z,69.58
2023-02-12T08:24:22.373Z,69.60
2023-02-12T08:27:24.791Z,69.19
2023-02-12T08:30:28.356Z,68.82
2023-02-12T08:33:33.690Z,68.34
2023-02-12T08:36:40.413Z,68.73
2023-02-12T08:39:42.985Z,67.62
2023-02-12T08:42:45.334Z,66.91
2023-02-12T08:45:47.714Z,66.84
2023-02-12T08:48:54.884Z,66.81
2023-02-12T08:51:59.134Z,65.57
2023-02-12T08:55:01.839Z,65.43
2023-02-12T08:58:04.359Z,66.43
2023-02-12T09:01:12.068Z,65.80
2023-02-12T09:04:23.997Z,65.44
2023-02-12T09:07:26.956Z,65.58
2023-02-12T09:10:29.304Z,64.98
2023-02-12T09:13:33.345Z,65.94
2023-02-12T09:16:37.583Z,67.41
2023-02-12T09:19:40.129Z,67.54
2023-02-12T09:22:43.028Z,67.91
2023-02-12T09:25:46.964Z,68.46
2023-02-12T09:28:50.980Z,67.46
2023-02-12T09:31:54.267Z,67.67
2023-02-12T09:34:57.108Z,67.40
2023-02-12T09:37:59.458Z,66.56
2023-02-12T09:41:39.286Z,65.37
2023-02-12T09:45:07.926Z,64.78
2023-02-12T09:48:31.091Z,63.58
2023-02-12T09:51:33.693Z,64.08
2023-02-12T09:54:39.842Z,63.51
2023-02-12T09:57:43.007Z,62.78
2023-02-12T10:00:46.424Z,64.22
2023-02-12T10:03:51.877Z,64.81
2023-02-12T10:07:07.671Z,64.59
2023-02-12T10:10:32.329Z,66.31
2023-02-12T10:14:01.790Z,66.25
2023-02-12T10:17:35.370Z,66.30
2023-02-12T10:20:43.580Z,66.24
2023-02-12T10:24:06.712Z,65.80
2023-02-12T10:27:19.288Z,65.77
2023-02-12T10:30:41.111Z,63.53
2023-02-12T10:33:49.752Z,64.53
2023-02-12T10:36:58.631Z,65.05
2023-02-12T10:40:32.857Z,64.47
2023-02-12T10:43:35.655Z,64.42
2023-02-12T10:46:39.107Z,64.28
2023-02-12T10:49:42.243Z,63.77
2023-02-12T10:52:55.247Z,63.63
2023-02-12T10:56:13.138Z,64.28
2023-02-12T10:59:24.394Z,61.40
2023-02-12T11:02:30.794Z,59.38
2023-02-12T11:05:37.318Z,60.44
2023-02-12T11:08:41.382Z,62.04
2023-02-12T11:11:44.186Z,62.03
2023-02-12T11:14:59.207Z,63.09
2023-02-12T11:18:05.738Z,63.60
2023-02-12T11:21:10.975Z,64.08
2023-02-12T11:24:38.849Z,63.79
2023-02-12T11:27:45.156Z,63.63
2023-02-12T11:30:59.110Z,64.13
2023-02-12T11:34:04.795Z,63.93
2023-02-12T11:37:17.749Z,63.95
2023-02-12T11:40:48.478Z,64.23
2023-02-12T11:43:52.192Z,63.38
2023-02-12T11:47:04.058Z,62.12
2023-02-12T11:50:31.844Z,62.02
2023-02-12T11:53:40.884Z,62.64
2023-02-12T11:56:47.008Z,63.00
2023-02-12T11:59:50.225Z,63.29
2023-02-12T12:03:28.323Z,62.99
2023-02-12T12:06:46.742Z,62.95
2023-02-12T12:10:13.886Z,62.74
2023-02-12T12:13:28.701Z,62.17
2023-02-12T12:17:03.866Z,59.87
2023-02-12T12:20:30.000Z,54.68
2023-02-12T12:23:37.940Z,52.81
2023-02-12T12:26:42.938Z,54.72
2023-02-12T12:29:57.940Z,56.02
2023-02-12T12:33:05.459Z,56.22
2023-02-12T12:36:16.838Z,57.71
2023-02-12T12:39:27.249Z,59.28
2023-02-12T12:43:07.511Z,59.05
2023-02-12T12:46:41.461Z,59.81
2023-02-12T12:50:25.553Z,60.74
2023-02-12T12:53:46.993Z,61.06
2023-02-12T12:57:10.711Z,61.35
2023-02-12T13:00:51.124Z,61.07
2023-02-12T13:04:36.578Z,60.37
2023-02-12T13:07:47.531Z,60.30
2023-02-12T13:11:01.452Z,60.11
2023-02-12T13:14:25.957Z,59.33
2023-02-12T13:18:09.355Z,59.12
2023-02-12T13:21:34.640Z,59.09
2023-02-12T13:25:03.347Z,59.71
2023-02-12T13:28:12.980Z,60.21
2023-02-12T13:31:37.018Z,60.54
2023-02-12T13:34:43.446Z,60.40
2023-02-12T13:37:57.519Z,60.16
2023-02-12T13:41:07.645Z,59.72
2023-02-12T13:44:17.170Z,59.89
2023-02-12T13:48:25.585Z,60.26
2023-02-12T13:51:39.917Z,60.80
2023-02-12T13:54:55.722Z,61.34
2023-02-12T13:58:31.574Z,61.51
2023-02-12T14:01:45.850Z,61.87
2023-02-12T14:05:03.842Z,61.85
2023-02-12T14:08:08.481Z,62.57
2023-02-12T14:11:21.264Z,62.58
2023-02-12T14:14:33.329Z,63.05
2023-02-12T14:17:38.498Z,63.08
2023-02-12T14:20:44.176Z,62.79
2023-02-12T14:23:48.244Z,61.28
2023-02-12T14:26:52.351Z,60.09
2023-02-12T14:30:32.561Z,59.00
2023-02-12T14:33:36.255Z,59.23
2023-02-12T14:36:44.366Z,60.19
2023-02-12T14:39:49.528Z,60.42
2023-02-12T14:42:57.605Z,60.62
2023-02-12T14:46:25.867Z,61.42
2023-02-12T14:49:36.857Z,61.96
2023-02-12T14:52:50.885Z,62.32
2023-02-12T14:55:54.823Z,62.70
2023-02-12T14:59:04.316Z,63.43
2023-02-12T15:02:15.131Z,62.97
2023-02-12T15:05:27.038Z,63.25
2023-02-12T15:08:51.831Z,63.04
2023-02-12T15:12:11.245Z,63.12
2023-02-12T15:15:45.987Z,63.24
2023-02-12T15:19:00.025Z,63.31
2023-02-12T15:22:03.974Z,63.71
2023-02-12T15:25:30.827Z,63.66
2023-02-12T15:28:38.349Z,63.85
2023-02-12T15:31:42.896Z,63.78
2023-02-12T15:34:50.744Z,64.10
2023-02-12T15:37:56.351Z,64.54
2023-02-12T15:41:02.359Z,64.68
2023-02-12T15:44:22.738Z,64.81
2023-02-12T15:47:28.546Z,65.10
2023-02-12T15:50:34.122Z,65.12
2023-02-12T15:53:40.855Z,65.32
2023-02-12T15:56:44.859Z,65.72
2023-02-12T15:59:57.750Z,65.93
2023-02-12T16:03:01.580Z,66.39
2023-02-12T16:06:13.926Z,66.50
2023-02-12T16:09:29.499Z,66.87
2023-02-12T16:12:38.240Z,67.47
2023-02-12T16:15:43.599Z,67.26
2023-02-12T16:19:03.648Z,67.29
2023-02-12T16:22:15.042Z,67.82
2023-02-12T16:25:26.317Z,67.97
2023-02-12T16:28:32.910Z,68.19
2023-02-12T16:31:37.393Z,68.72
2023-02-12T16:34:42.535Z,68.80
2023-02-12T16:37:51.609Z,69.10
2023-02-12T16:41:21.593Z,69.63
2023-02-12T16:44:33.175Z,69.87
2023-02-12T16:47:37.403Z,70.12
2023-02-12T16:50:51.068Z,70.01
2023-02-12T16:53:58.245Z,70.26
2023-02-12T16:57:03.450Z,70.29
2023-02-12T17:00:10.806Z,70.15
2023-02-12T17:03:17.610Z,69.89
2023-02-12T17:06:25.587Z,70.06
2023-02-12T17:09:30.480Z,70.02
2023-02-12T17:12:34.439Z,70.09
2023-02-12T17:15:44.869Z,70.39
2023-02-12T17:18:48.642Z,70.64
2023-02-12T17:21:52.622Z,70.97
2023-02-12T17:24:56.158Z,71.22
2023-02-12T17:28:01.447Z,71.58
2023-02-12T17:31:07.851Z,72.38
2023-02-12T17:34:12.977Z,71.52
2023-02-12T17:37:17.965Z,71.38
2023-02-12T17:40:22.359Z,71.57
2023-02-12T17:43:26.550Z,71.64
2023-02-12T17:46:31.056Z,71.84
2023-02-12T17:49:36.137Z,71.90
2023-02-12T17:52:43.230Z,72.30
2023-02-12T17:55:47.716Z,72.38
2023-02-12T17:58:51.636Z,72.30
2023-02-12T18:01:57.714Z,72.43
2023-02-12T18:05:01.647Z,72.52
2023-02-12T18:08:07.310Z,72.89
2023-02-12T18:11:12.895Z,72.67
2023-02-12T18:14:18.782Z,72.65
2023-02-12T18:17:23.043Z,72.62
2023-02-12T18:20:29.125Z,72.75
2023-02-12T18:23:36.249Z,72.66
2023-02-12T18:26:40.422Z,72.98
2023-02-12T18:29:44.723Z,72.96
2023-02-12T18:32:48.879Z,72.74
2023-02-12T18:36:10.660Z,72.51
2023-02-12T18:39:19.579Z,72.96
2023-02-12T18:42:24.449Z,72.54
2023-02-12T18:45:29.701Z,72.41
2023-02-12T18:48:34.615Z,72.47
2023-02-12T18:51:41.828Z,72.61
2023-02-12T18:54:49.577Z,72.89
2023-02-12T18:57:54.566Z,73.08
2023-02-12T19:00:59.454Z,73.29
2023-02-12T19:04:07.571Z,73.37
2023-02-12T19:07:13.343Z,73.40
2023-02-12T19:10:22.932Z,73.68
2023-02-12T19:13:27.264Z,73.87
2023-02-12T19:16:34.303Z,74.62
2023-02-12T19:19:39.202Z,74.55
2023-02-12T19:22:48.408Z,74.63
2023-02-12T19:25:52.793Z,74.70
2023-02-12T19:28:59.670Z,74.98
2023-02-12T19:32:05.392Z,75.05
2023-02-12T19:35:09.488Z,75.25
2023-02-12T19:38:13.181Z,75.26
2023-02-12T19:41:20.212Z,75.54
2023-02-12T19:44:29.284Z,75.61
2023-02-12T19:47:35.640Z,75.81
2023-02-12T19:50:46.984Z,76.00
2023-02-12T19:53:59.512Z,76.17
2023-02-12T19:57:09.328Z,76.60
2023-02-12T20:00:14.368Z,76.72
2023-02-12T20:03:20.817Z,76.99
2023-02-12T20:06:31.050Z,77.11
2023-02-12T20:09:36.061Z,77.22
2023-02-12T20:12:43.776Z,77.92
2023-02-12T20:15:48.786Z,77.09
2023-02-12T20:18:56.726Z,77.62
2023-02-12T20:22:05.540Z,78.02
2023-02-12T20:25:09.895Z,78.15
2023-02-12T20:28:13.968Z,78.52
2023-02-12T20:31:29.124Z,79.08
2023-02-12T20:34:45.761Z,79.29
2023-02-12T20:38:07.913Z,79.25
2023-02-12T20:41:14.040Z,79.34
2023-02-12T20:44:21.803Z,79.35
2023-02-12T20:47:34.241Z,79.32
2023-02-12T20:50:38.894Z,79.02
2023-02-12T20:53:44.367Z,78.94
2023-02-12T20:56:49.804Z,79.10
2023-02-12T20:59:57.462Z,79.32
2023-02-12T21:03:04.570Z,79.55
2023-02-12T21:06:10.180Z,79.38
2023-02-12T21:09:15.175Z,79.46
2023-02-12T21:12:20.217Z,79.42
2023-02-12T21:15:25.290Z,79.85
2023-02-12T21:18:33.451Z,79.84
2023-02-12T21:21:40.247Z,80.09
2023-02-12T21:24:43.997Z,80.00
2023-02-12T21:27:47.381Z,80.44
2023-02-12T21:30:50.709Z,80.49
2023-02-12T21:33:59.887Z,80.57
2023-02-12T21:37:05.301Z,80.71
2023-02-12T21:40:10.860Z,80.90
2023-02-12T21:43:14.213Z,81.42
2023-02-12T21:46:18.662Z,81.54
2023-02-12T21:49:28.703Z,82.00
2023-02-12T21:52:32.012Z,82.08
2023-02-12T21:55:38.194Z,82.11
2023-02-12T21:58:41.222Z,82.65
2023-02-12T22:01:49.862Z,82.38
2023-02-12T22:04:54.832Z,82.43
2023-02-12T22:07:57.372Z,82.85
2023-02-12T22:11:06.704Z,82.59
2023-02-12T22:14:13.003Z,82.46
2023-02-12T22:17:15.492Z,82.51
2023-02-12T22:20:18.657Z,82.30
2023-02-12T22:23:20.953Z,82.47
2023-02-12T22:26:28.752Z,82.90
2023-02-12T22:29:31.300Z,83.40
2023-02-12T22:32:33.930Z,83.56
2023-02-12T22:35:36.340Z,82.99
2023-02-12T22:38:39.870Z,83.17
2023-02-12T22:41:42.768Z,83.50
2023-02-12T22:44:45.143Z,83.82
2023-02-12T22:47:47.449Z,84.19
2023-02-12T22:50:49.772Z,84.88
2023-02-12T22:53:52.228Z,85.31
2023-02-12T22:56:54.633Z,85.71
2023-02-12T22:59:56.973Z,86.38
2023-02-12T23:02:59.410Z,86.67
2023-02-12T23:06:02.770Z,87.44
2023-02-12T23:09:05.423Z,87.97
2023-02-12T23:12:09.750Z,88.03
2023-02-12T23:15:12.110Z,88.80
2023-02-12T23:18:15.642Z,88.41
2023-02-12T23:21:18.054Z,89.71
2023-02-12T23:24:20.437Z,89.55
2023-02-12T23:27:22.804Z,89.78
2023-02-12T23:30:25.132Z,90.32
2023-02-12T23:33:27.751Z,89.82
2023-02-12T23:36:30.157Z,90.38
2023-02-12T23:39:32.477Z,90.84
2023-02-12T23:42:34.854Z,91.84
2023-02-12T23:45:37.242Z,91.88
2023-02-12T23:48:39.688Z,91.79
2023-02-12T23:51:42.066Z,91.81
2023-02-12T23:54:44.370Z,92.09
2023-02-12T23:57:47.670Z,92.80
